Detall de PIREP

Printer-friendly versionPDF version

[2012/12/08 11:57:00]
Flight IATA:CT1003
Pilot Number:012
Company ICAO:CAT
Aircraft Type:C750/F
PAX:4
Departing Airport: LPPT
Destination Airport: LEGE
Alternate Airport:LEPA
Online: VATSIM
Route:IXIDA DCT PORLI UN870 SEROX/N360F240 H110 MAMUK
Flight Level:F400
No Slew and time accel
No pause
Crash detect
Detect pilot in Cockpit between each 30 and 45 minutes
11:57 Zero fuel Weight: 22576 Lbs, Fuel Weight: 4794 Lbs
11:57 VATSIM:LPPT 081730Z 00000KT 9999 FEW015 11/09 Q1023
11:57 VATSIM:LEGE 081730Z VRB01KT CAVOK 05/M00 Q1019
11:57 VOICE CATALONIAN / CPT LPPT
11:57 Parking Brakes off
12:06 Take-off
12:06 Take off Weight: 27271 Lbs
12:06 Wind: 000º @ 000 Knots Heading: 022º
12:06 POS N38º 46´ 38´´ W009º 08´ 17´´
12:06 Gear Up: 165 Knots
12:06 Flaps:3 at 165 Knots
12:07 Flaps:2 at 169 Knots
12:07 Flaps:0 at 185 Knots
12:17 TOC
12:17 Fuel Weight: 4175 Lb
12:21 Wind:296º@068 Knots Heading: 060º Ground Speed: 521 Knots Altitude 40295 ft
12:36 Wind:292º@059 Knots Heading: 062º Ground Speed: 523 Knots Altitude 40347 ft
12:51 Wind:293º@061 Knots Heading: 071º Ground Speed: 529 Knots Altitude 40324 ft
13:01 TOD
13:01 Fuel Weight: 3218 Lb
13:06 Wind:337º@045 Knots Heading: 061º Ground Speed: 442 Knots Altitude 27893 ft
13:21 Wind:349º@008 Knots Heading: 090º Ground Speed: 249 Knots Altitude 5515 ft
13:29 Flaps:2 at 195 Knots
13:29 Gear Down: 194 Knots
13:29 Flaps:3 at 193 Knots
13:29 Flaps:4 at 159 Knots
13:30 Flaps:5 at 153 Knots
13:31 TouchDown:Rate -269 ft/min Speed: 124 Knots
13:32 VATSIM:LEGE 081900Z 13001KT CAVOK 04/M01 Q1020
13:32 Land
13:32 Wind:000º@000 Knots
13:32 Heading: 195º
13:32 Flight Duration: 01:26
13:32 Landing Weight: 25424 Lbs
13:32 POS N41º 54´ 10´´ E002º 45´ 40´´
13:33 Parking brakes on
13:33 Block to Block Duration: 01:36
13:33 Final Fuel: 2832 Lbls
13:33 Spent Fuel: 1962 Lbls
13:33 Flight Length: 621 NM
13:33 TOD Land Length: 160 NM

Exportar CSV

Powered by Drupal - Modified by Danger4k